Vass, North Carolina
Current Conditions -  °F | °C
As of 3:35 PM on Friday 21 Nov 2014 (Local Time) from KSOP Reporting Station
Clear Clear  
Wind Chill: 52°   Ceiling: Unl
Heat Index: 52°   Visibility: 10mi
Dew Point: 10°   Wind: 5mph
Humidity: 19%   Direction: 360°N
Pressure: 30.42"   Gusts: NA
Location:  35.26°N, 79.28°W
Report Text: KSOP 212035Z AUTO 36004KT 10SM CLR 11/M12 A3042 RMK AO1
Loading
Personal Weather Stations






























Interactive Weather Map New forecast layout! Learn more

10-Day Weather Forecast

Advertisements
Track Severe Weather on mobile